createdAt,value
2022-08-11T00:03:14.599Z,44.20
2022-08-11T00:18:14.424Z,33.60
2022-08-11T00:33:17.262Z,33.60
2022-08-11T00:48:15.059Z,33.90
2022-08-11T01:03:15.394Z,41.40
2022-08-11T01:18:17.603Z,35.40
2022-08-11T01:33:16.233Z,35.60
2022-08-11T01:48:16.278Z,35.80
2022-08-11T02:03:16.583Z,36.30
2022-08-11T02:18:19.923Z,60.00
2022-08-11T02:48:21.970Z,66.50
2022-08-11T03:03:18.556Z,63.10
2022-08-11T03:18:18.797Z,63.90
2022-08-11T03:33:18.997Z,64.00
2022-08-11T04:03:21.895Z,60.00
2022-08-11T04:18:20.607Z,52.80
2022-08-11T04:33:21.619Z,53.20
2022-08-11T04:48:21.140Z,40.40
2022-08-11T05:03:23.397Z,39.90
2022-08-11T05:33:22.542Z,57.50
2022-08-11T05:48:25.172Z,60.90
2022-08-11T06:03:23.023Z,60.30
2022-08-11T06:18:23.480Z,58.40
2022-08-11T06:33:23.880Z,58.50
2022-08-11T06:48:26.042Z,57.60
2022-08-11T07:03:24.394Z,60.00
2022-08-11T07:18:24.822Z,48.90
2022-08-11T07:34:18.510Z,57.70
2022-08-11T07:48:25.454Z,61.40
2022-08-11T08:03:25.811Z,54.10
2022-08-11T08:18:29.883Z,50.60
2022-08-11T08:33:27.823Z,55.50
2022-08-11T09:18:34.452Z,54.00
2022-08-11T09:33:28.582Z,52.90
2022-08-11T10:03:30.989Z,43.70
2022-08-11T10:18:32.204Z,48.80
2022-08-11T10:33:59.615Z,47.70
2022-08-11T10:48:31.629Z,49.20
2022-08-11T11:03:31.192Z,47.60
2022-08-11T11:18:31.452Z,42.70
2022-08-11T11:33:31.616Z,45.90
2022-08-11T11:48:31.899Z,40.10
2022-08-11T12:03:32.465Z,42.50
2022-08-11T12:18:32.766Z,42.90
2022-08-11T12:33:39.822Z,27.50
2022-08-11T13:18:34.897Z,46.20
2022-08-11T13:33:39.205Z,43.80
2022-08-11T13:48:35.617Z,56.10
2022-08-11T14:04:32.858Z,26.20
2022-08-11T14:18:36.080Z,26.40
2022-08-11T14:34:02.657Z,26.40
2022-08-11T14:48:36.864Z,26.90
2022-08-11T15:03:37.072Z,26.50
2022-08-11T15:18:37.302Z,26.40
2022-08-11T15:33:37.731Z,25.80
2022-08-11T15:48:38.117Z,24.80
2022-08-11T16:04:09.801Z,25.60
2022-08-11T16:18:38.601Z,25.30
2022-08-11T16:33:52.216Z,24.90
2022-08-11T16:48:41.184Z,25.70
2022-08-11T17:03:40.830Z,25.70
2022-08-11T17:18:39.885Z,26.50
2022-08-11T17:33:40.338Z,27.00
2022-08-11T17:48:48.830Z,27.40
2022-08-11T18:03:58.791Z,26.90
2022-08-11T18:18:41.192Z,29.20
2022-08-11T18:34:08.732Z,28.50
2022-08-11T19:18:43.145Z,33.10
2022-08-11T19:34:11.445Z,30.50
2022-08-11T19:48:43.634Z,36.70
2022-08-11T20:03:44.161Z,28.40
2022-08-11T20:18:44.269Z,29.50
2022-08-11T20:33:48.699Z,29.10
2022-08-11T20:48:47.311Z,29.10
2022-08-11T21:04:01.381Z,29.50
2022-08-11T21:18:45.624Z,29.90
2022-08-11T21:33:45.992Z,30.40
2022-08-11T21:48:46.090Z,31.20
2022-08-11T22:03:51.128Z,30.80
2022-08-11T22:18:50.405Z,31.80
2022-08-11T22:34:03.964Z,31.70
2022-08-11T22:48:47.541Z,38.00
2022-08-11T23:03:47.818Z,33.40
2022-08-11T23:18:48.548Z,39.20
2022-08-11T23:33:48.487Z,33.10
2022-08-11T23:48:48.758Z,33.70
